Time;durP1;ratioP1;P1;durP2;ratioP2;P2;SDS_P1;SDS_P2;PMS_P1;PMS_P2;Temp;Humidity;BMP_temperature;BMP_pressure;BME280_temperature;BME280_humidity;BME280_pressure;Samples;Min_cycle;Max_cycle;Signal;HPM_P1;HPM_P2
2022/07/15 00:01:36;;;;;;;3.80;2.80;;;;;;;22.18;41.61;99653.19;4992945;28;20242;-78
2022/07/15 00:04:01;;;;;;;4.33;3.40;;;;;;;22.11;42.28;99654.84;4983070;28;20479;-78
2022/07/15 00:06:27;;;;;;;3.30;2.63;;;;;;;22.01;42.39;99655.03;4987264;28;20287;-78
2022/07/15 00:08:52;;;;;;;5.97;4.17;;;;;;;21.96;42.18;99657.38;4985219;28;20213;-77
2022/07/15 00:11:18;;;;;;;4.00;3.33;;;;;;;21.93;42.22;99660.41;4983957;28;20715;-78
2022/07/15 00:13:43;;;;;;;5.63;5.07;;;;;;;21.94;42.37;99661.25;4986619;28;20638;-78
2022/07/15 00:16:09;;;;;;;3.20;2.90;;;;;;;21.95;42.45;99660.22;4984670;28;20234;-78
2022/07/15 00:18:34;;;;;;;3.17;2.90;;;;;;;21.94;42.38;99667.41;4985983;28;20232;-77
2022/07/15 00:20:59;;;;;;;5.53;3.50;;;;;;;21.91;42.32;99656.22;4985375;28;20211;-78
2022/07/15 00:23:25;;;;;;;4.43;3.37;;;;;;;21.91;42.72;99658.91;4985009;28;20231;-78
2022/07/15 00:25:50;;;;;;;4.00;3.20;;;;;;;21.87;42.87;99661.94;4987404;28;20343;-78
2022/07/15 00:28:16;;;;;;;4.17;3.20;;;;;;;21.84;42.93;99669.44;4986257;28;20204;-78
2022/07/15 00:30:42;;;;;;;3.37;3.07;;;;;;;21.78;43.06;99664.75;5002020;28;20219;-78
2022/07/15 00:33:09;;;;;;;5.80;3.27;;;;;;;21.74;43.18;99666.94;4986170;28;20208;-77
2022/07/15 00:35:36;;;;;;;4.13;3.63;;;;;;;21.71;43.32;99672.63;4980797;28;20513;-78
2022/07/15 00:38:04;;;;;;;3.50;3.27;;;;;;;21.70;43.31;99670.94;4981348;28;20475;-77
2022/07/15 00:40:29;;;;;;;3.93;3.37;;;;;;;21.65;43.41;99667.94;4992418;28;20822;-78
2022/07/15 00:42:55;;;;;;;3.33;2.90;;;;;;;21.61;43.51;99663.94;4996664;28;21022;-78
2022/07/15 00:45:24;;;;;;;5.37;3.43;;;;;;;21.58;43.63;99672.31;4985283;28;20766;-78
2022/07/15 00:47:52;;;;;;;7.00;4.20;;;;;;;21.55;43.62;99676.13;4986302;28;20697;-78
2022/07/15 00:50:20;;;;;;;3.50;3.20;;;;;;;21.52;43.83;99675.63;4983084;28;20996;-78
2022/07/15 00:52:56;;;;;;;6.20;3.20;;;;;;;21.50;43.83;99669.63;4983016;28;20590;-78
2022/07/15 00:55:23;;;;;;;3.57;3.27;;;;;;;21.43;44.00;99666.75;4984000;28;20851;-77
2022/07/15 00:57:51;;;;;;;5.50;3.07;;;;;;;21.38;43.86;99672.59;4995882;28;20514;-78
2022/07/15 01:00:17;;;;;;;3.15;2.80;;;;;;;21.36;44.02;99673.72;4986289;28;20489;-77
2022/07/15 01:02:49;;;;;;;4.03;3.63;;;;;;;21.34;43.90;99675.75;4983260;28;20378;-77
2022/07/15 01:05:16;;;;;;;5.70;3.20;;;;;;;21.29;43.96;99668.22;4979640;28;20197;-77
2022/07/15 01:07:42;;;;;;;4.80;3.20;;;;;;;21.28;44.02;99673.72;4983439;28;20464;-77
2022/07/15 01:10:08;;;;;;;3.97;3.57;;;;;;;21.23;44.01;99676.91;4982259;28;20611;-77
2022/07/15 01:12:37;;;;;;;3.80;3.30;;;;;;;21.19;44.09;99678.22;4980722;28;20545;-77
2022/07/15 01:15:04;;;;;;;8.83;3.50;;;;;;;21.13;44.39;99679.72;4978717;28;20904;-77
2022/07/15 01:17:31;;;;;;;3.80;3.20;;;;;;;21.08;44.46;99673.19;4976837;28;20472;-77
2022/07/15 01:19:57;;;;;;;5.70;5.20;;;;;;;21.06;44.69;99672.53;4982122;28;20507;-77
2022/07/15 01:22:23;;;;;;;4.83;3.03;;;;;;;21.03;44.67;99671.00;4982416;28;20468;-77
2022/07/15 01:24:50;;;;;;;8.17;3.57;;;;;;;21.02;44.55;99673.88;4988615;28;20464;-77
2022/07/15 01:27:26;;;;;;;3.07;2.83;;;;;;;20.96;44.67;99672.69;4984347;28;20462;-77
2022/07/15 01:29:52;;;;;;;4.93;3.37;;;;;;;20.92;44.81;99671.31;4986195;28;20507;-77
2022/07/15 01:32:18;;;;;;;4.22;3.33;;;;;;;20.91;44.85;99681.16;4985232;28;20858;-77
2022/07/15 01:34:48;;;;;;;4.80;3.23;;;;;;;20.88;45.14;99680.66;4986078;28;20217;-77
2022/07/15 01:37:15;;;;;;;4.53;2.97;;;;;;;20.84;45.13;99681.97;4980294;28;20916;-77
2022/07/15 01:39:43;;;;;;;4.93;3.50;;;;;;;20.81;45.33;99676.97;4990144;28;20491;-77
2022/07/15 01:42:09;;;;;;;6.67;3.93;;;;;;;20.75;45.44;99675.78;5001024;28;20539;-77
2022/07/15 01:44:35;;;;;;;3.93;3.37;;;;;;;20.68;45.49;99675.56;4988028;28;20466;-77
2022/07/15 01:47:01;;;;;;;7.83;4.33;;;;;;;20.60;45.67;99667.53;4988125;28;20548;-77
2022/07/15 01:49:31;;;;;;;4.70;3.10;;;;;;;20.49;46.07;99676.63;4986176;28;21004;-77
2022/07/15 01:52:12;;;;;;;6.83;3.50;;;;;;;20.44;46.14;99680.78;4990932;28;20479;-77
2022/07/15 01:54:40;;;;;;;5.60;3.80;;;;;;;20.38;46.54;99676.91;4988136;28;20618;-76
2022/07/15 01:57:06;;;;;;;4.30;2.80;;;;;;;20.32;46.42;99686.41;4985942;28;20968;-77
2022/07/15 01:59:41;;;;;;;4.67;3.60;;;;;;;20.21;46.74;99683.16;4986435;28;20499;-77
2022/07/15 02:02:07;;;;;;;5.60;3.40;;;;;;;20.09;47.18;99686.09;4983899;28;20503;-77
2022/07/15 02:04:32;;;;;;;6.10;3.80;;;;;;;20.04;47.27;99685.72;4983843;28;20304;-77
2022/07/15 02:06:58;;;;;;;5.10;3.83;;;;;;;19.98;47.56;99681.03;4986239;28;20657;-77
2022/07/15 02:09:25;;;;;;;6.10;3.33;;;;;;;19.96;47.75;99683.00;5001075;28;20274;-77
2022/07/15 02:11:52;;;;;;;8.53;4.73;;;;;;;19.93;47.69;99682.47;4987681;28;21210;-77
2022/07/15 02:14:20;;;;;;;3.90;3.60;;;;;;;19.91;47.63;99681.81;4983108;28;20456;-76
2022/07/15 02:16:47;;;;;;;4.90;4.03;;;;;;;19.85;48.17;99689.44;4988302;28;20470;-77
2022/07/15 02:19:16;;;;;;;5.30;3.07;;;;;;;19.78;48.34;99684.88;4988542;28;20534;-77
2022/07/15 02:21:42;;;;;;;5.67;3.90;;;;;;;19.73;48.64;99685.34;4985875;28;21032;-77
2022/07/15 02:24:07;;;;;;;4.83;3.57;;;;;;;19.69;48.66;99683.97;4986906;28;20200;-77
2022/07/15 02:26:33;;;;;;;3.53;3.27;;;;;;;19.66;48.68;99682.47;4987309;28;20196;-77
2022/07/15 02:29:04;;;;;;;5.00;3.57;;;;;;;19.64;48.84;99679.06;4986307;28;20223;-77
2022/07/15 02:31:30;;;;;;;3.60;3.10;;;;;;;19.62;49.31;99682.88;4982446;28;20492;-77
2022/07/15 02:33:55;;;;;;;4.40;3.72;;;;;;;19.60;48.95;99684.84;4986472;28;20623;-77
2022/07/15 02:36:25;;;;;;;4.90;3.40;;;;;;;19.56;49.28;99687.00;4985355;28;20292;-77
2022/07/15 02:38:50;;;;;;;5.97;4.10;;;;;;;19.52;49.14;99688.28;4983812;28;21027;-77
2022/07/15 02:41:16;;;;;;;4.40;3.80;;;;;;;19.45;49.30;99682.75;4988089;28;20211;-77
2022/07/15 02:43:44;;;;;;;7.40;3.60;;;;;;;19.39;49.17;99694.00;4986424;28;20338;-77
2022/07/15 02:46:10;;;;;;;6.10;3.50;;;;;;;19.32;49.24;99686.78;4984399;28;20460;-77
2022/07/15 02:48:37;;;;;;;6.47;3.27;;;;;;;19.23;49.42;99689.38;4978894;28;20493;-78
2022/07/15 02:51:04;;;;;;;5.00;3.23;;;;;;;19.20;49.59;99700.31;4987675;28;20572;-77
2022/07/15 02:53:29;;;;;;;3.77;3.40;;;;;;;19.15;49.72;99701.75;4986275;28;21076;-77
2022/07/15 02:55:59;;;;;;;4.30;3.83;;;;;;;19.10;49.64;99696.06;4986497;28;20228;-77
2022/07/15 02:58:25;;;;;;;4.60;3.90;;;;;;;19.05;49.94;99696.50;4982567;28;20471;-77
2022/07/15 03:00:51;;;;;;;4.27;3.00;;;;;;;19.01;50.17;99701.28;4984933;28;20584;-77
2022/07/15 03:03:17;;;;;;;5.37;4.00;;;;;;;19.04;50.11;99696.63;4985118;28;21019;-77
2022/07/15 03:05:43;;;;;;;5.20;4.50;;;;;;;19.01;50.01;99695.13;4986275;28;20801;-77
2022/07/15 03:08:10;;;;;;;3.70;3.40;;;;;;;19.00;50.04;99699.59;4982741;28;20802;-77
2022/07/15 03:10:36;;;;;;;4.40;3.23;;;;;;;18.99;50.22;99702.41;4984343;28;20324;-77
2022/07/15 03:13:01;;;;;;;3.97;3.57;;;;;;;18.94;50.25;99700.19;4986204;28;20947;-77
2022/07/15 03:15:27;;;;;;;5.90;3.70;;;;;;;18.94;50.22;99704.69;4985056;28;20359;-77
2022/07/15 03:17:52;;;;;;;8.10;3.20;;;;;;;18.93;50.17;99700.34;4983422;28;20230;-77
2022/07/15 03:20:18;;;;;;;5.13;3.40;;;;;;;18.90;50.21;99712.16;4962461;28;20689;-77
2022/07/15 03:22:46;;;;;;;3.83;3.10;;;;;;;18.85;50.35;99709.09;4977535;28;20207;-77
2022/07/15 03:25:12;;;;;;;4.27;3.83;;;;;;;18.78;50.39;99710.66;4970959;28;20457;-77
2022/07/15 03:27:38;;;;;;;6.17;3.83;;;;;;;18.68;50.36;99715.16;4967462;28;20301;-77
2022/07/15 03:30:06;;;;;;;3.77;3.47;;;;;;;18.62;50.82;99721.06;4968734;28;20429;-77
2022/07/15 03:32:32;;;;;;;6.77;3.90;;;;;;;18.55;51.44;99715.47;4986299;28;20476;-76
2022/07/15 03:34:58;;;;;;;4.70;3.60;;;;;;;18.50;50.88;99713.28;4969374;28;20489;-77
2022/07/15 03:37:26;;;;;;;3.53;3.10;;;;;;;18.42;51.13;99720.31;4960043;28;20589;-77
2022/07/15 03:39:51;;;;;;;5.33;3.00;;;;;;;18.42;51.02;99720.31;4972196;28;20601;-77
2022/07/15 03:42:17;;;;;;;3.77;3.23;;;;;;;18.37;51.05;99719.91;4986815;28;20640;-77
2022/07/15 03:44:43;;;;;;;3.77;3.40;;;;;;;18.30;51.40;99723.13;4968569;28;20234;-77
2022/07/15 03:47:09;;;;;;;5.70;3.27;;;;;;;18.29;51.44;99726.78;4965810;28;20461;-77
2022/07/15 03:49:35;;;;;;;4.03;3.57;;;;;;;18.26;51.40;99727.06;4967935;28;20722;-77
2022/07/15 03:52:01;;;;;;;4.80;3.47;;;;;;;18.23;51.68;99732.66;4975854;28;21043;-77
2022/07/15 03:54:26;;;;;;;4.20;3.80;;;;;;;18.22;51.51;99730.97;4963434;28;20541;-77
2022/07/15 03:56:52;;;;;;;7.80;3.13;;;;;;;18.20;51.69;99725.00;4966754;28;20285;-76
2022/07/15 03:59:22;;;;;;;4.77;3.20;;;;;;;18.24;51.67;99733.50;4968005;28;20748;-77
2022/07/15 04:01:49;;;;;;;7.90;3.60;;;;;;;18.26;51.61;99734.22;4966746;28;20523;-76
2022/07/15 04:04:15;;;;;;;3.80;3.03;;;;;;;18.27;51.55;99731.38;4985954;28;20461;-77
2022/07/15 04:06:41;;;;;;;5.73;3.67;;;;;;;18.31;51.57;99730.13;4983465;28;20689;-77
2022/07/15 04:09:07;;;;;;;4.10;3.20;;;;;;;18.38;51.32;99732.19;4965095;28;20538;-77
2022/07/15 04:11:33;;;;;;;6.33;4.10;;;;;;;18.33;51.71;99735.28;4967877;28;20206;-77
2022/07/15 04:13:59;;;;;;;3.83;3.53;;;;;;;18.33;52.00;99727.31;4969898;28;20766;-77
2022/07/15 04:16:24;;;;;;;4.40;3.77;;;;;;;18.33;51.66;99738.81;4963026;28;20265;-76
2022/07/15 04:18:51;;;;;;;4.60;4.03;;;;;;;18.37;51.78;99730.53;4966615;28;20528;-76
2022/07/15 04:21:17;;;;;;;7.00;4.07;;;;;;;18.40;51.97;99730.25;4988735;28;20459;-76
2022/07/15 04:23:43;;;;;;;3.80;3.33;;;;;;;18.45;51.61;99735.97;4980354;28;20468;-76
2022/07/15 04:26:09;;;;;;;3.80;3.40;;;;;;;18.48;51.75;99741.00;4985935;28;20867;-76
2022/07/15 04:28:34;;;;;;;3.90;3.30;;;;;;;18.48;51.93;99735.69;4984382;28;20619;-76
2022/07/15 04:31:00;;;;;;;4.20;3.80;;;;;;;18.48;52.30;99743.66;4984255;28;20483;-76
2022/07/15 04:33:34;;;;;;;5.28;4.50;;;;;;;18.46;52.51;99745.63;4967788;28;20479;-76
2022/07/15 04:35:59;;;;;;;4.30;3.20;;;;;;;18.45;52.57;99743.94;4972447;28;20312;-76
2022/07/15 04:38:25;;;;;;;3.87;3.47;;;;;;;18.31;52.60;99739.94;4969826;28;20220;-76
2022/07/15 04:40:54;;;;;;;3.67;3.37;;;;;;;18.26;52.91;99743.00;4960168;28;20850;-76
2022/07/15 04:43:20;;;;;;;10.73;4.27;;;;;;;18.31;52.73;99746.09;4966343;28;20449;-75
2022/07/15 04:45:46;;;;;;;3.97;3.53;;;;;;;18.38;52.70;99750.81;4967917;28;20307;-76
2022/07/15 04:51:00;;;;;;;3.73;3.40;;;;;;;18.65;52.01;99747.38;4967660;28;20454;-76
2022/07/15 04:53:26;;;;;;;5.33;4.27;;;;;;;18.68;51.99;99753.22;4984938;28;20463;-76
2022/07/15 04:55:52;;;;;;;4.60;4.03;;;;;;;18.93;51.49;99758.88;4969545;28;21008;-76
2022/07/15 04:58:19;;;;;;;4.50;4.03;;;;;;;19.37;50.32;99749.25;4983865;28;20467;-76
2022/07/15 05:00:46;;;;;;;4.77;4.37;;;;;;;20.55;47.36;99748.09;4989462;28;20231;-77
2022/07/15 05:03:14;;;;;;;3.90;3.53;;;;;;;21.96;44.03;99740.31;4970252;28;20522;-77
2022/07/15 05:05:39;;;;;;;5.07;3.57;;;;;;;23.12;41.27;99744.41;4976196;28;20525;-76
2022/07/15 05:08:07;;;;;;;3.90;3.53;;;;;;;24.02;39.07;99739.25;4976667;28;20458;-76
2022/07/15 05:10:35;;;;;;;7.87;3.40;;;;;;;24.79;37.68;99740.00;4960366;28;20451;-76
2022/07/15 05:13:05;;;;;;;6.87;4.70;;;;;;;25.51;36.23;99745.44;4958416;28;20455;-76
2022/07/15 05:15:31;;;;;;;3.93;3.13;;;;;;;26.12;34.71;99736.09;4962068;28;20548;-76
2022/07/15 05:18:02;;;;;;;4.50;3.80;;;;;;;26.29;34.87;99742.00;4957612;28;20547;-77
2022/07/15 05:20:27;;;;;;;8.43;3.93;;;;;;;26.80;34.05;99739.84;4983009;28;20842;-76
2022/07/15 05:22:53;;;;;;;6.30;3.70;;;;;;;27.07;33.05;99745.34;4964376;28;20205;-77
2022/07/15 05:25:19;;;;;;;5.90;3.50;;;;;;;27.44;32.36;99741.34;4966485;28;20373;-77
2022/07/15 05:27:45;;;;;;;3.30;3.00;;;;;;;27.84;31.77;99746.84;4965349;28;20532;-77
2022/07/15 05:30:16;;;;;;;3.60;3.30;;;;;;;28.12;31.16;99737.72;4957446;28;20201;-77
2022/07/15 05:32:42;;;;;;;4.90;3.80;;;;;;;28.53;30.66;99739.34;4959568;28;20592;-77
2022/07/15 05:35:16;;;;;;;6.53;3.70;;;;;;;29.14;29.72;99741.66;4957038;28;20482;-78
2022/07/15 05:37:42;;;;;;;8.70;3.50;;;;;;;29.49;29.33;99746.66;4955860;28;20456;-77
2022/07/15 05:40:11;;;;;;;5.00;3.70;;;;;;;29.46;29.08;99752.50;4955707;28;20989;-77
2022/07/15 05:42:42;;;;;;;4.40;3.53;;;;;;;29.54;28.94;99744.97;4962475;28;20874;-77
2022/07/15 05:45:08;;;;;;;4.40;3.67;;;;;;;29.71;28.55;99747.19;4982014;28;20960;-78
2022/07/15 05:47:36;;;;;;;6.23;3.63;;;;;;;30.10;28.27;99743.31;4965539;28;20201;-77
2022/07/15 05:50:02;;;;;;;4.90;3.40;;;;;;;30.62;27.75;99738.47;4965973;28;20491;-77
2022/07/15 05:52:30;;;;;;;5.00;3.57;;;;;;;30.98;27.22;99739.53;4944873;28;20256;-77
2022/07/15 05:54:56;;;;;;;3.50;3.30;;;;;;;31.37;26.54;99733.81;4964482;28;20479;-77
2022/07/15 05:57:23;;;;;;;5.33;3.70;;;;;;;31.59;26.23;99743.09;4965657;28;20205;-77
2022/07/15 05:59:49;;;;;;;3.57;3.23;;;;;;;32.04;25.24;99734.47;4960404;28;21039;-78
2022/07/15 06:02:16;;;;;;;7.70;3.83;;;;;;;31.93;25.84;99741.53;4962981;28;21260;-77
2022/07/15 06:04:41;;;;;;;4.10;3.70;;;;;;;31.75;25.65;99736.97;4974268;28;20287;-77
2022/07/15 06:07:08;;;;;;;5.90;4.00;;;;;;;31.89;25.54;99740.34;4964760;28;20954;-77
2022/07/15 06:09:34;;;;;;;3.63;3.30;;;;;;;32.21;25.06;99740.00;4961159;28;21030;-77
2022/07/15 06:11:59;;;;;;;4.17;3.67;;;;;;;32.49;25.04;99742.06;4978219;28;20198;-77
2022/07/15 06:14:25;;;;;;;6.40;3.70;;;;;;;32.72;24.70;99743.06;4972477;28;20245;-77
2022/07/15 06:16:50;;;;;;;6.50;4.03;;;;;;;33.02;24.36;99740.19;4960899;28;20205;-77
2022/07/15 06:19:16;;;;;;;5.90;3.70;;;;;;;33.28;24.00;99745.06;4958836;28;20252;-77
2022/07/15 06:21:41;;;;;;;3.93;3.53;;;;;;;33.32;23.88;99745.38;4979582;28;20685;-78
2022/07/15 06:24:07;;;;;;;3.70;3.40;;;;;;;33.23;23.75;99746.84;4964283;28;20502;-77
2022/07/15 06:26:32;;;;;;;5.23;2.93;;;;;;;33.41;23.83;99748.56;4963503;28;20322;-77
2022/07/15 06:28:59;;;;;;;6.83;3.70;;;;;;;33.69;23.38;99748.53;4982146;28;20229;-77
2022/07/15 06:31:24;;;;;;;7.15;4.10;;;;;;;33.92;22.98;99744.03;4981226;28;20489;-77
2022/07/15 06:33:50;;;;;;;6.03;4.30;;;;;;;33.79;22.88;99750.63;4992399;28;20476;-77
2022/07/15 06:36:16;;;;;;;4.40;4.00;;;;;;;33.83;23.03;99740.88;5001825;28;20244;-77
2022/07/15 06:38:44;;;;;;;7.83;3.70;;;;;;;33.41;23.34;99743.13;4962957;28;20307;-77
2022/07/15 06:41:10;;;;;;;3.67;3.07;;;;;;;33.43;23.19;99744.53;4963521;28;21253;-78
2022/07/15 06:43:35;;;;;;;5.03;3.90;;;;;;;33.55;23.12;99741.75;4964908;28;20506;-77
2022/07/15 06:46:18;;;;;;;4.70;3.13;;;;;;;33.82;22.88;99744.69;4977244;28;20854;-77
2022/07/15 06:48:43;;;;;;;3.87;3.47;;;;;;;34.05;22.58;99741.00;4959648;28;21357;-77
2022/07/15 06:51:09;;;;;;;4.13;3.30;;;;;;;33.59;22.70;99740.19;4978944;28;20284;-77
2022/07/15 06:53:35;;;;;;;5.23;3.30;;;;;;;33.44;22.98;99743.44;4977561;28;20212;-77
2022/07/15 06:56:01;;;;;;;5.57;3.20;;;;;;;33.88;22.49;99737.41;4961085;28;20213;-77
2022/07/15 06:58:27;;;;;;;4.57;3.13;;;;;;;34.23;22.22;99733.63;4980206;28;20530;-78
2022/07/15 07:00:52;;;;;;;6.07;3.23;;;;;;;34.48;21.81;99733.97;4978099;28;20472;-77
2022/07/15 07:03:18;;;;;;;8.70;4.47;;;;;;;34.30;21.90;99737.00;4970083;28;20482;-77
2022/07/15 07:05:45;;;;;;;4.50;3.10;;;;;;;34.55;21.95;99731.91;4965822;28;20273;-77
2022/07/15 07:08:10;;;;;;;5.93;3.57;;;;;;;34.86;21.32;99729.56;4972471;28;20883;-77
2022/07/15 07:10:36;;;;;;;5.07;3.13;;;;;;;35.18;21.12;99726.16;4981945;28;20321;-77
2022/07/15 07:13:01;;;;;;;5.20;2.63;;;;;;;35.48;20.84;99728.38;4984103;28;20200;-78
2022/07/15 07:15:27;;;;;;;6.93;4.03;;;;;;;35.59;20.67;99727.44;4990313;28;20580;-77
2022/07/15 07:17:53;;;;;;;3.53;3.17;;;;;;;35.75;20.35;99733.00;4982403;28;20212;-78
2022/07/15 07:20:18;;;;;;;3.20;2.90;;;;;;;35.78;20.43;99725.13;4976309;28;20298;-77
2022/07/15 07:22:44;;;;;;;3.83;2.73;;;;;;;35.50;20.51;99730.84;4983206;28;20925;-77
2022/07/15 07:25:09;;;;;;;2.80;2.60;;;;;;;35.14;20.94;99723.13;4984875;28;20292;-78
2022/07/15 07:27:35;;;;;;;3.97;3.20;;;;;;;34.95;21.04;99725.34;4981486;28;20399;-78
2022/07/15 07:30:04;;;;;;;4.30;3.07;;;;;;;35.12;20.84;99736.19;4981215;28;20944;-78
2022/07/15 07:32:31;;;;;;;4.05;3.03;;;;;;;35.16;20.92;99739.22;4980123;28;20492;-77
2022/07/15 07:34:56;;;;;;;5.17;3.70;;;;;;;35.11;20.65;99739.19;4976229;28;20239;-77
2022/07/15 07:37:22;;;;;;;4.07;3.00;;;;;;;35.10;20.61;99735.63;4979247;28;20925;-78
2022/07/15 07:39:49;;;;;;;6.30;3.70;;;;;;;34.66;21.08;99745.72;4988280;28;20245;-77
2022/07/15 07:42:15;;;;;;;4.60;2.90;;;;;;;33.88;22.02;99742.88;4981814;28;21099;-78
2022/07/15 07:44:42;;;;;;;4.33;2.97;;;;;;;33.95;21.91;99745.44;4975894;28;20511;-77
2022/07/15 07:47:08;;;;;;;5.23;3.00;;;;;;;34.11;21.30;99742.72;4988282;28;20458;-77
2022/07/15 07:49:33;;;;;;;5.83;3.37;;;;;;;34.23;21.09;99741.81;4982992;28;20491;-77
2022/07/15 07:51:59;;;;;;;5.90;3.10;;;;;;;34.09;21.30;99739.41;4988733;28;20240;-77
2022/07/15 07:54:24;;;;;;;6.47;2.63;;;;;;;33.96;21.45;99739.72;4973809;28;20205;-77
2022/07/15 07:56:49;;;;;;;3.27;2.87;;;;;;;34.06;21.41;99739.91;4977992;28;20205;-77
2022/07/15 07:59:15;;;;;;;5.03;3.10;;;;;;;34.32;20.89;99732.97;5000429;28;20272;-78
2022/07/15 08:01:40;;;;;;;3.53;3.23;;;;;;;34.40;20.76;99737.13;4994548;28;20628;-77
2022/07/15 08:04:06;;;;;;;6.57;3.77;;;;;;;34.07;21.22;99736.09;4977390;28;20590;-77
2022/07/15 08:06:33;;;;;;;5.57;3.60;;;;;;;34.03;21.38;99740.38;4981659;28;20205;-77
2022/07/15 08:08:59;;;;;;;3.53;3.23;;;;;;;34.20;21.43;99739.59;4979416;28;20233;-77
2022/07/15 08:11:24;;;;;;;2.83;2.57;;;;;;;34.54;21.02;99732.13;4982772;28;20471;-77
2022/07/15 08:13:50;;;;;;;4.10;3.23;;;;;;;34.39;21.43;99735.50;4991003;28;20213;-77
2022/07/15 08:16:16;;;;;;;3.30;3.00;;;;;;;34.37;21.54;99737.63;4976441;28;20275;-77
2022/07/15 08:18:41;;;;;;;3.10;2.70;;;;;;;34.26;21.69;99744.84;4982491;28;20232;-77
2022/07/15 08:21:07;;;;;;;4.60;3.10;;;;;;;34.56;21.30;99740.91;4980658;28;20320;-78
2022/07/15 08:23:32;;;;;;;3.73;3.27;;;;;;;34.85;20.65;99738.84;4979421;28;20642;-77
2022/07/15 08:25:58;;;;;;;7.03;3.20;;;;;;;34.80;20.59;99749.72;4993199;28;20352;-77
2022/07/15 08:28:24;;;;;;;3.30;3.00;;;;;;;34.48;20.68;99736.69;4979912;28;20257;-77
2022/07/15 08:30:50;;;;;;;4.40;2.93;;;;;;;34.05;21.18;99743.72;4987426;28;20465;-78
2022/07/15 08:33:16;;;;;;;5.88;3.65;;;;;;;33.46;22.05;99740.50;4975304;28;20515;-77
2022/07/15 08:35:43;;;;;;;4.80;2.90;;;;;;;32.63;22.80;99753.50;4974839;28;20327;-77
2022/07/15 08:38:09;;;;;;;5.23;3.30;;;;;;;31.58;24.59;99746.03;4972732;28;20238;-77
2022/07/15 08:40:35;;;;;;;3.20;2.90;;;;;;;30.98;25.54;99758.50;4975668;28;20784;-77
2022/07/15 08:43:02;;;;;;;3.63;3.10;;;;;;;30.29;26.40;99754.22;4977790;28;20486;-77
2022/07/15 08:45:28;;;;;;;3.50;2.70;;;;;;;29.97;27.29;99756.94;4976182;28;20391;-77
2022/07/15 08:47:57;;;;;;;3.77;3.20;;;;;;;29.70;27.17;99759.84;4973320;28;20809;-77
2022/07/15 08:50:22;;;;;;;7.30;2.80;;;;;;;29.61;27.74;99765.75;4988372;28;20236;-77
2022/07/15 08:52:48;;;;;;;5.47;3.07;;;;;;;29.53;27.79;99747.88;4983257;28;20857;-76
2022/07/15 08:55:15;;;;;;;4.23;3.83;;;;;;;29.56;27.77;99760.97;4989505;28;20275;-77
2022/07/15 08:57:45;;;;;;;3.40;2.77;;;;;;;29.52;27.91;99768.69;4994635;28;20296;-77
2022/07/15 09:00:11;;;;;;;3.23;3.03;;;;;;;29.51;27.69;99771.63;4984388;28;20456;-78
2022/07/15 09:02:38;;;;;;;4.22;3.22;;;;;;;29.69;27.47;99769.03;4983017;28;20487;-77
2022/07/15 09:05:15;;;;;;;2.87;2.67;;;;;;;29.78;27.33;99765.00;4985153;28;20554;-78
2022/07/15 09:07:53;;;;;;;5.70;3.37;;;;;;;29.85;27.40;99764.97;4984085;28;20547;-77
2022/07/15 09:10:23;;;;;;;4.20;3.23;;;;;;;30.08;27.06;99758.94;5001259;28;20467;-77
2022/07/15 09:12:51;;;;;;;3.47;3.17;;;;;;;30.39;26.55;99762.66;4984406;28;21054;-77
2022/07/15 09:15:34;;;;;;;5.13;3.50;;;;;;;30.21;27.26;99758.81;4998810;28;20531;-77
2022/07/15 09:18:07;;;;;;;3.33;2.83;;;;;;;29.97;27.43;99765.94;4993212;28;20482;-77
2022/07/15 09:20:33;;;;;;;4.47;3.10;;;;;;;29.94;27.28;99771.75;4993684;28;20832;-77
2022/07/15 09:23:00;;;;;;;3.63;2.93;;;;;;;29.95;27.50;99759.06;4981191;28;20456;-77
2022/07/15 09:25:27;;;;;;;3.60;3.30;;;;;;;30.02;27.06;99765.25;4967160;28;20456;-77
2022/07/15 09:27:53;;;;;;;5.10;2.90;;;;;;;30.06;27.02;99763.78;4983717;28;21184;-77
2022/07/15 09:33:36;;;;;;;3.20;2.67;;;;;;;30.01;26.97;99747.34;4981005;28;20208;-76
2022/07/15 09:36:09;;;;;;;3.27;2.90;;;;;;;30.03;27.04;99747.13;4991866;28;21034;-77
2022/07/15 09:38:43;;;;;;;2.80;2.60;;;;;;;30.14;27.26;99757.25;4997817;28;20475;-77
2022/07/15 09:41:12;;;;;;;3.53;3.10;;;;;;;30.31;27.14;99744.00;4967387;28;20500;-77
2022/07/15 09:43:53;;;;;;;3.80;3.03;;;;;;;30.35;26.57;99742.47;4981173;28;20448;-77
2022/07/15 09:46:20;;;;;;;3.77;3.20;;;;;;;30.41;26.85;99747.84;4978189;28;20460;-77
2022/07/15 09:48:48;;;;;;;5.07;2.70;;;;;;;30.42;25.78;99737.81;4981610;28;20607;-77
2022/07/15 09:51:14;;;;;;;3.20;2.90;;;;;;;30.32;25.86;99745.63;4983563;28;20463;-77
2022/07/15 09:53:40;;;;;;;4.13;3.30;;;;;;;30.19;26.00;99738.44;4984235;28;20456;-76
2022/07/15 09:56:11;;;;;;;4.60;2.80;;;;;;;30.20;25.86;99735.50;4981904;28;20508;-77
2022/07/15 09:58:38;;;;;;;3.70;3.30;;;;;;;30.33;25.64;99736.47;4981219;28;20826;-77
2022/07/15 10:01:09;;;;;;;6.90;3.30;;;;;;;30.42;25.84;99735.13;4986538;28;20520;-77
2022/07/15 10:03:38;;;;;;;3.30;2.47;;;;;;;30.27;26.18;99732.75;5002109;28;20791;-78
2022/07/15 10:06:09;;;;;;;5.23;2.93;;;;;;;30.42;26.15;99730.53;4994236;28;20466;-78
2022/07/15 10:08:35;;;;;;;6.73;3.67;;;;;;;30.59;25.83;99732.63;4982784;28;20488;-78
2022/07/15 10:11:10;;;;;;;3.77;2.90;;;;;;;30.59;25.31;99733.47;4991144;28;20456;-79
2022/07/15 10:14:04;;;;;;;5.33;2.43;;;;;;;30.56;25.44;99725.78;4990397;28;20448;-78
2022/07/15 10:16:45;;;;;;;3.80;3.07;;;;;;;30.90;24.81;99718.13;4956245;28;20544;-78
2022/07/15 10:19:48;;;;;;;3.07;2.70;;;;;;;31.08;25.26;99720.81;4979006;28;20898;-79
2022/07/15 10:22:35;;;;;;;2.93;2.40;;;;;;;31.26;24.71;99722.66;4990135;28;20543;-79
2022/07/15 10:25:23;;;;;;;2.77;2.53;;;;;;;31.30;25.03;99717.59;4986525;28;20875;-77
2022/07/15 10:28:04;;;;;;;5.87;2.93;;;;;;;31.33;24.65;99717.13;4986225;28;20460;-80
2022/07/15 10:30:30;;;;;;;3.10;2.90;;;;;;;31.44;24.83;99718.28;4999645;28;20509;-79
2022/07/15 10:33:15;;;;;;;4.20;2.60;;;;;;;31.44;24.90;99708.22;4993614;28;20459;-79
2022/07/15 10:35:47;;;;;;;7.07;3.30;;;;;;;31.52;24.92;99712.50;4976724;28;20503;-79
2022/07/15 10:38:21;;;;;;;4.47;2.63;;;;;;;31.63;24.75;99711.69;4992431;28;20925;-78
2022/07/15 10:41:07;;;;;;;3.50;2.97;;;;;;;31.71;24.83;99707.81;4991384;28;20561;-79
2022/07/15 10:43:40;;;;;;;4.63;2.73;;;;;;;31.63;24.29;99708.16;5000623;28;20448;-79
2022/07/15 10:46:17;;;;;;;5.63;3.20;;;;;;;31.36;24.88;99716.66;5009687;28;20459;-79
2022/07/15 10:48:43;;;;;;;5.93;2.90;;;;;;;31.18;24.20;99708.56;4983697;28;20881;-78
2022/07/15 10:51:09;;;;;;;5.77;3.30;;;;;;;30.89;24.83;99710.22;4995695;28;20456;-78
2022/07/15 10:53:46;;;;;;;7.70;3.40;;;;;;;30.51;25.05;99708.53;5007718;28;20462;-79
2022/07/15 10:56:37;;;;;;;3.33;3.00;;;;;;;30.39;25.07;99717.41;5001046;28;20487;-78
2022/07/15 10:59:09;;;;;;;2.27;2.07;;;;;;;30.67;25.38;99702.50;4994954;28;20711;-78
2022/07/15 11:01:42;;;;;;;3.83;2.63;;;;;;;30.98;24.46;99698.00;4993117;28;20470;-79
2022/07/15 11:04:21;;;;;;;3.03;2.60;;;;;;;31.19;24.06;99692.09;4994849;28;20470;-78
2022/07/15 11:07:01;;;;;;;2.83;2.63;;;;;;;31.06;24.25;99693.09;5006705;28;20579;-78
2022/07/15 11:09:46;;;;;;;3.97;2.80;;;;;;;31.08;24.23;99690.97;4995593;28;20472;-78
2022/07/15 11:12:12;;;;;;;3.40;2.67;;;;;;;30.96;23.99;99687.38;4999233;28;20459;-78
2022/07/15 11:14:45;;;;;;;4.90;2.67;;;;;;;30.69;24.32;99691.44;4998320;28;20462;-78
2022/07/15 11:17:12;;;;;;;3.90;2.87;;;;;;;30.45;24.22;99682.34;4989204;28;20456;-78
2022/07/15 11:19:38;;;;;;;2.87;2.67;;;;;;;30.33;24.10;99682.28;4992575;28;20483;-77
2022/07/15 11:22:07;;;;;;;3.93;3.00;;;;;;;30.13;24.49;99677.84;5000626;28;20920;-78
2022/07/15 11:24:35;;;;;;;5.20;2.90;;;;;;;30.10;24.88;99681.00;4988757;28;20482;-78
2022/07/15 11:27:01;;;;;;;4.10;2.53;;;;;;;30.31;24.80;99674.34;5000773;28;20570;-79
2022/07/15 11:29:40;;;;;;;5.37;2.77;;;;;;;30.40;24.91;99680.31;5000789;28;20504;-78
2022/07/15 11:32:07;;;;;;;4.37;2.90;;;;;;;30.33;24.28;99669.53;4989235;28;20205;-79
2022/07/15 11:34:41;;;;;;;3.70;3.40;;;;;;;30.31;25.10;99670.81;5000564;28;20742;-78
2022/07/15 11:37:06;;;;;;;2.90;2.70;;;;;;;30.39;25.08;99673.25;4999420;28;20944;-78
2022/07/15 11:39:32;;;;;;;7.07;4.30;;;;;;;30.29;24.58;99672.91;4987912;28;20491;-78
2022/07/15 11:44:49;;;;;;;3.27;2.50;;;;;;;30.14;24.85;99668.69;4999718;28;20557;-77
2022/07/15 11:47:16;;;;;;;3.30;3.00;;;;;;;30.07;24.88;99675.22;5002041;28;20475;-78